Aérodrome :
LOGIN :

S'inscrire | Disclaimer

   EN    FR    IT 

 










Légende :    VFR   VFR Marginal   IFR   IFR Intensif   IFR Très Intensif
Visi : 
Plafond : 
>= 8 km
>= 3000ft
5 à 8 km
1000 à 3000 ft
1500m à 5 km
500 à 1000 ft
800 à 1500m
200 à 500 ft
< 800m
< 200 ft
Symboles :   Orages  Brouillard  Fortes neiges  Fortes précipitations  Vent > 20 kt
SIGMETs :   Divers  Orages  Givrage  Turbulence  Onde Orograph.  Cendres Volcan.







- Altitude de l'aérodrome : 1682 ft
- Code IATA : VIT


LEVT - Vitoria Gasteiz

DERNIER METAR :
  • 170030Z 00000KT 5000 2000SW BCFG SCT001 07/07 Q1020

METARs EXPIRÉS :
  • 170000Z 00000KT 6000 2500SW R04/0400N BCFG SCT025 07/06 Q1020
  • 162330Z 00000KT 7000 R04/0700N BCFG SCT025 08/07 Q1020
  • 162300Z 00000KT 9000 SCT025 08/07 Q1020
  • 162230Z 10001KT 9999 SCT025 08/08 Q1020
  • 162200Z 00000KT 9999 SCT025 09/08 Q1020

TAF TAF LEVT
Valide du 17 à 00h jusqu'au 18 à 00h UTC


162300Z 1700/1724 VRB05KT 9999 SCT035 TX20/1714Z TN08/1703Z
TEMPO 1700/1710 3000 BR
TEMPO 1700/1709 1500 BCFG BKN005
TEMPO 1700/1708 0800 BCFG BKN002
PROB40
TEMPO 1700/1706 0150 FG VV001
BECMG 1711/1714 02010KT
PROB30
TEMPO 1718/1721 3000 RA SHRA BKN010 SCT030TCU
PROB40
TEMPO 1721/1724 1500 BCFG BKN005
Pas de NOTAMs connus pour ce terrain.



MET'MAP, la Météo Aéronautique d'un coup d'oeil ! - Copyright ORBIFLY Décembre 2007 - Disclaimer

ORBIFLY MET'MAP TEAM :

Programmation & Développement : Alexandra Zaïnal
Conception & Développement : Baudouin d'Aumeries
Co-Programmation & Développement : Marc-Olivier Méhu
Soutien technique & logistique : Manuel Goepfert

Contact : metmap@orbifly.com




SOURCES & CREDITS :

   NOAA